createdAt,value
2023-03-28T00:02:45.028Z,0.20
2023-03-28T00:07:37.183Z,0.30
2023-03-28T00:12:31.233Z,0.40
2023-03-28T00:17:24.813Z,0.30
2023-03-28T00:22:16.697Z,0.40
2023-03-28T00:27:08.594Z,0.30
2023-03-28T00:32:01.004Z,0.20
2023-03-28T00:36:55.316Z,0.40
2023-03-28T00:41:47.503Z,0.35
2023-03-28T00:46:56.166Z,0.30
2023-03-28T00:51:55.549Z,0.40
2023-03-28T00:56:50.842Z,0.30
2023-03-28T01:02:08.013Z,0.50
2023-03-28T01:07:00.432Z,0.38
2023-03-28T01:11:54.664Z,0.40
2023-03-28T01:16:48.036Z,0.20
2023-03-28T01:21:55.012Z,0.40
2023-03-28T01:27:10.104Z,0.28
2023-03-28T01:32:24.118Z,0.30
2023-03-28T01:37:59.529Z,0.30
2023-03-28T01:43:12.786Z,0.32
2023-03-28T01:48:17.890Z,0.30
2023-03-28T01:53:33.228Z,0.20
2023-03-28T01:58:36.399Z,0.43
2023-03-28T02:03:35.900Z,0.30
2023-03-28T02:08:43.912Z,0.20
2023-03-28T02:14:00.770Z,0.22
2023-03-28T02:19:12.664Z,0.30
2023-03-28T02:24:33.182Z,0.30
2023-03-28T02:29:39.326Z,0.30
2023-03-28T02:34:57.350Z,0.40
2023-03-28T02:39:55.734Z,0.27
2023-03-28T02:45:09.593Z,0.30
2023-03-28T02:50:22.420Z,0.40
2023-03-28T02:55:20.436Z,0.43
2023-03-28T03:00:32.963Z,0.43
2023-03-28T03:05:25.092Z,0.50
2023-03-28T03:10:22.419Z,0.60
2023-03-28T03:15:17.212Z,0.50
2023-03-28T03:20:33.691Z,0.50
2023-03-28T03:25:28.408Z,0.50
2023-03-28T03:30:32.371Z,0.82
2023-03-28T03:35:47.165Z,0.85
2023-03-28T03:40:40.724Z,0.98
2023-03-28T03:45:34.850Z,0.80
2023-03-28T03:50:27.666Z,1.00
2023-03-28T03:55:54.705Z,1.10
2023-03-28T04:00:49.016Z,1.00
2023-03-28T04:06:23.204Z,1.20
2023-03-28T04:11:15.319Z,0.98
2023-03-28T04:16:09.511Z,0.80
2023-03-28T04:21:30.203Z,1.00
2023-03-28T04:26:27.547Z,1.00
2023-03-28T04:31:29.806Z,0.90
2023-03-28T04:37:11.981Z,0.90
2023-03-28T04:42:19.211Z,0.88
2023-03-28T04:48:37.953Z,1.02
2023-03-28T04:53:36.947Z,1.00
2023-03-28T04:58:47.792Z,0.80
2023-03-28T05:03:43.068Z,0.90
2023-03-28T05:08:36.298Z,0.80
2023-03-28T05:14:01.142Z,0.80
2023-03-28T05:18:58.988Z,0.80
2023-03-28T05:24:37.115Z,0.85
2023-03-28T05:29:57.623Z,0.90
2023-03-28T05:34:49.769Z,0.88
2023-03-28T05:39:41.834Z,1.00
2023-03-28T05:45:42.790Z,0.80
2023-03-28T05:50:47.512Z,0.85
2023-03-28T05:55:41.701Z,0.95
2023-03-28T06:00:34.618Z,0.80
2023-03-28T06:05:27.573Z,0.88
2023-03-28T06:10:21.926Z,1.00
2023-03-28T06:15:29.824Z,1.05
2023-03-28T06:20:21.845Z,0.73
2023-03-28T06:25:18.814Z,0.98
2023-03-28T06:30:11.389Z,0.65
2023-03-28T06:35:10.759Z,0.77
2023-03-28T06:40:04.073Z,0.70
2023-03-28T06:44:55.965Z,0.82
2023-03-28T06:50:05.768Z,0.88
2023-03-28T06:55:02.551Z,0.80
2023-03-28T06:59:54.619Z,0.55
2023-03-28T07:04:55.577Z,0.90
2023-03-28T07:09:50.024Z,0.68
2023-03-28T07:14:53.389Z,0.90
2023-03-28T07:19:46.115Z,0.77
2023-03-28T07:24:38.732Z,0.80
2023-03-28T07:29:33.452Z,0.80
2023-03-28T07:34:45.957Z,0.80
2023-03-28T07:39:44.841Z,0.68
2023-03-28T07:45:41.348Z,0.93
2023-03-28T07:50:33.465Z,0.73
2023-03-28T07:55:26.443Z,0.80
2023-03-28T08:01:00.566Z,0.70
2023-03-28T08:05:55.465Z,0.80
2023-03-28T08:15:43.698Z,0.93
2023-03-28T08:20:35.831Z,0.60
2023-03-28T08:25:37.229Z,0.70
2023-03-28T08:30:30.874Z,0.50
2023-03-28T08:35:27.353Z,0.80
2023-03-28T08:40:25.035Z,0.70
2023-03-28T08:45:54.354Z,0.70
2023-03-28T08:51:02.503Z,0.70
2023-03-28T08:55:55.378Z,0.75
2023-03-28T09:00:50.006Z,0.60
2023-03-28T09:05:50.048Z,0.80
2023-03-28T09:10:51.781Z,0.63
2023-03-28T09:16:20.281Z,0.80
2023-03-28T09:21:45.075Z,0.77
2023-03-28T09:27:02.642Z,0.70
2023-03-28T09:32:11.279Z,0.60
2023-03-28T09:37:32.664Z,0.60
2023-03-28T09:42:47.604Z,0.60
2023-03-28T09:47:39.636Z,0.60
2023-03-28T09:52:35.494Z,0.60
2023-03-28T09:57:59.031Z,0.55
2023-03-28T10:02:55.436Z,0.80
2023-03-28T10:07:48.130Z,0.90
2023-03-28T10:13:03.270Z,0.60
2023-03-28T10:18:00.120Z,0.90
2023-03-28T10:23:34.122Z,0.70
2023-03-28T10:28:37.269Z,0.68
2023-03-28T10:33:38.428Z,0.60
2023-03-28T10:39:22.165Z,0.70
2023-03-28T10:44:43.288Z,0.65
2023-03-28T10:49:47.280Z,1.10
2023-03-28T10:54:49.750Z,3.05
2023-03-28T11:00:02.349Z,1.30
2023-03-28T11:05:01.734Z,1.00
2023-03-28T11:10:21.450Z,1.60
2023-03-28T11:15:28.381Z,1.20
2023-03-28T11:20:55.357Z,1.20
2023-03-28T11:26:04.383Z,0.85
2023-03-28T11:31:18.596Z,1.10
2023-03-28T11:36:33.992Z,1.80
2023-03-28T11:41:31.116Z,1.00
2023-03-28T11:46:27.488Z,1.00
2023-03-28T11:51:58.615Z,1.20
2023-03-28T11:57:03.748Z,1.10
2023-03-28T12:02:28.330Z,1.07
2023-03-28T12:07:24.690Z,1.00
2023-03-28T12:12:22.030Z,1.13
2023-03-28T12:17:21.165Z,1.10
2023-03-28T12:22:30.630Z,2.05
2023-03-28T12:27:52.272Z,1.08
2023-03-28T12:33:25.275Z,1.30
2023-03-28T12:38:42.377Z,1.08
2023-03-28T12:44:08.595Z,1.30
2023-03-28T12:49:38.602Z,1.27
2023-03-28T12:54:35.635Z,1.25
2023-03-28T12:59:43.143Z,1.20
2023-03-28T13:04:59.536Z,1.23
2023-03-28T13:10:07.769Z,1.10
2023-03-28T13:15:14.996Z,1.15
2023-03-28T13:20:28.742Z,1.33
2023-03-28T13:25:32.558Z,1.35
2023-03-28T13:30:30.211Z,1.52
2023-03-28T13:35:43.381Z,1.00
2023-03-28T13:40:51.089Z,1.15
2023-03-28T13:45:42.949Z,1.33
2023-03-28T13:50:59.689Z,1.38
2023-03-28T13:56:09.150Z,1.40
2023-03-28T14:01:09.891Z,1.08
2023-03-28T14:06:12.321Z,1.20
2023-03-28T14:11:04.283Z,1.27
2023-03-28T14:15:59.855Z,1.20
2023-03-28T14:20:54.737Z,0.95
2023-03-28T14:25:46.791Z,1.20
2023-03-28T14:30:40.450Z,0.80
2023-03-28T14:35:34.062Z,1.13
2023-03-28T14:40:26.371Z,1.10
2023-03-28T14:45:21.397Z,1.10
2023-03-28T14:50:15.921Z,1.30
2023-03-28T14:55:09.864Z,1.10
2023-03-28T15:00:02.250Z,0.90
2023-03-28T15:04:57.049Z,0.80
2023-03-28T15:10:22.455Z,1.10
2023-03-28T15:15:24.192Z,0.85
2023-03-28T15:20:22.257Z,0.88
2023-03-28T15:25:14.226Z,0.73
2023-03-28T15:30:16.953Z,0.60
2023-03-28T15:35:45.849Z,0.73
2023-03-28T15:40:41.855Z,0.80
2023-03-28T15:45:41.071Z,0.70
2023-03-28T15:50:36.577Z,1.10
2023-03-28T15:55:28.789Z,0.68
2023-03-28T16:00:45.807Z,0.80
2023-03-28T16:06:01.842Z,0.70
2023-03-28T16:11:00.283Z,0.95
2023-03-28T16:16:05.918Z,0.90
2023-03-28T16:21:24.020Z,0.80
2023-03-28T16:26:16.348Z,0.80
2023-03-28T16:31:14.589Z,0.80
2023-03-28T16:36:07.023Z,0.70
2023-03-28T16:40:58.884Z,1.17
2023-03-28T16:45:56.696Z,0.82
2023-03-28T16:51:24.447Z,0.63
2023-03-28T16:56:17.605Z,0.90
2023-03-28T17:01:21.786Z,0.85
2023-03-28T17:06:40.426Z,0.68
2023-03-28T17:11:33.051Z,0.80
2023-03-28T17:16:24.996Z,0.98
2023-03-28T17:21:18.782Z,0.80
2023-03-28T17:26:12.259Z,0.73
2023-03-28T17:32:07.042Z,0.70
2023-03-28T17:37:00.560Z,1.00
2023-03-28T17:41:52.483Z,0.80
2023-03-28T17:46:47.872Z,0.85
2023-03-28T17:51:40.141Z,0.80
2023-03-28T17:56:32.301Z,0.63
2023-03-28T18:01:49.191Z,0.70
2023-03-28T18:06:41.402Z,0.90
2023-03-28T18:11:34.272Z,0.80
2023-03-28T18:21:19.178Z,0.93
2023-03-28T18:26:12.026Z,1.00
2023-03-28T18:36:06.879Z,0.90
2023-03-28T18:40:58.852Z,1.10
2023-03-28T18:45:54.873Z,1.00
2023-03-28T18:50:58.692Z,1.58
2023-03-28T18:55:52.829Z,1.10
2023-03-28T19:00:44.948Z,1.10
2023-03-28T19:05:37.333Z,1.13
2023-03-28T19:10:30.997Z,1.42
2023-03-28T19:15:27.681Z,1.20
2023-03-28T19:20:19.615Z,0.93
2023-03-28T19:25:11.760Z,1.20
2023-03-28T19:30:04.475Z,1.10
2023-03-28T19:34:57.270Z,1.30
2023-03-28T19:39:49.154Z,1.00
2023-03-28T19:44:41.119Z,1.10
2023-03-28T19:49:33.059Z,0.95
2023-03-28T19:54:42.300Z,1.00
2023-03-28T19:59:38.670Z,1.15
2023-03-28T20:04:30.681Z,1.23
2023-03-28T20:09:24.217Z,1.10
2023-03-28T20:14:35.548Z,1.00
2023-03-28T20:19:28.984Z,1.10
2023-03-28T20:24:38.409Z,1.00
2023-03-28T20:29:30.332Z,1.00
2023-03-28T20:40:43.853Z,1.00
2023-03-28T20:45:38.185Z,0.90
2023-03-28T20:50:39.329Z,1.33
2023-03-28T20:56:04.868Z,0.95
2023-03-28T21:00:58.305Z,1.10
2023-03-28T21:05:53.288Z,0.93
2023-03-28T21:10:53.474Z,1.10
2023-03-28T21:15:51.272Z,1.05
2023-03-28T21:20:44.607Z,0.80
2023-03-28T21:26:16.325Z,1.13
2023-03-28T21:31:11.925Z,1.35
2023-03-28T21:36:16.832Z,1.00
2023-03-28T21:41:09.270Z,0.90
2023-03-28T21:46:27.680Z,1.02
2023-03-28T21:51:19.620Z,1.10
2023-03-28T21:56:14.399Z,0.70
2023-03-28T22:01:06.952Z,1.08
2023-03-28T22:05:58.967Z,1.10
2023-03-28T22:10:53.442Z,0.88
2023-03-28T22:15:45.646Z,1.00
2023-03-28T22:20:39.551Z,1.53
2023-03-28T22:25:34.976Z,1.00
2023-03-28T22:30:28.068Z,1.10
2023-03-28T22:35:20.047Z,0.90
2023-03-28T22:40:14.611Z,0.90
2023-03-28T22:45:07.798Z,1.00
2023-03-28T22:49:59.720Z,1.00
2023-03-28T22:54:53.316Z,1.40
2023-03-28T22:59:45.450Z,0.80
2023-03-28T23:04:59.039Z,1.10
2023-03-28T23:09:51.020Z,0.95
2023-03-28T23:14:43.169Z,1.00
2023-03-28T23:19:35.198Z,0.90
2023-03-28T23:24:30.015Z,0.90
2023-03-28T23:29:27.039Z,1.10
2023-03-28T23:34:19.174Z,1.00
2023-03-28T23:39:11.257Z,0.80
2023-03-28T23:44:03.373Z,1.07
2023-03-28T23:48:55.319Z,0.90
2023-03-28T23:54:03.344Z,0.80
2023-03-28T23:58:55.305Z,0.93
